Time;durP1;ratioP1;P1;durP2;ratioP2;P2;SDS_P1;SDS_P2;PMS_P1;PMS_P2;Temp;Humidity;BMP_temperature;BMP_pressure;BME280_temperature;BME280_humidity;BME280_pressure;Samples;Min_cycle;Max_cycle;Signal;HPM_P1;HPM_P2
2023/01/25 00:02:03;;;;;;;372.20;161.10;;;1.50;99.90;;;;;;5053124;28;20041;-86
2023/01/25 00:04:29;;;;;;;381.33;164.03;;;0.70;99.90;;;;;;5070572;28;20265;-86
2023/01/25 00:06:55;;;;;;;392.13;162.30;;;1.30;99.90;;;;;;5060900;28;20052;-86
2023/01/25 00:09:21;;;;;;;384.50;163.37;;;0.60;99.90;;;;;;5062416;28;20302;-85
2023/01/25 00:11:47;;;;;;;379.50;161.87;;;2.20;99.90;;;;;;5063421;28;20302;-86
2023/01/25 00:14:14;;;;;;;377.67;162.63;;;0.60;99.90;;;;;;5059161;28;20805;-86
2023/01/25 00:16:40;;;;;;;376.13;161.60;;;0.60;99.90;;;;;;5058974;28;20519;-85
2023/01/25 00:19:08;;;;;;;375.57;163.10;;;0.70;99.90;;;;;;5059748;28;20287;-86
2023/01/25 00:21:34;;;;;;;354.13;159.70;;;0.60;99.90;;;;;;5051257;28;20311;-85
2023/01/25 00:24:00;;;;;;;373.77;161.17;;;0.60;99.90;;;;;;5056558;28;20298;-86
2023/01/25 00:26:29;;;;;;;373.30;162.70;;;0.80;99.90;;;;;;5063901;28;20338;-85
2023/01/25 00:28:55;;;;;;;373.73;162.43;;;1.90;99.90;;;;;;5062835;28;20299;-86
2023/01/25 00:31:43;;;;;;;375.23;161.77;;;0.40;99.90;;;;;;5065858;28;20144;-86
2023/01/25 00:34:24;;;;;;;376.20;162.10;;;0.60;99.90;;;;;;5013517;28;20084;-86
2023/01/25 00:36:57;;;;;;;378.83;163.40;;;0.40;99.90;;;;;;5018490;28;20380;-85
2023/01/25 00:39:25;;;;;;;384.17;162.30;;;0.60;99.90;;;;;;5018830;28;20907;-83
2023/01/25 00:41:50;;;;;;;386.63;163.70;;;0.20;99.90;;;;;;5011434;28;20317;-83
2023/01/25 00:44:16;;;;;;;383.00;163.13;;;0.60;99.90;;;;;;5005320;28;20373;-83
2023/01/25 00:46:42;;;;;;;383.73;162.33;;;1.90;99.90;;;;;;5005681;28;20052;-83
2023/01/25 00:49:30;;;;;;;381.23;162.40;;;0.50;99.90;;;;;;5019974;28;20034;-84
2023/01/25 00:51:56;;;;;;;381.17;162.77;;;2.70;99.90;;;;;;5015600;28;20449;-83
2023/01/25 00:54:22;;;;;;;382.77;162.53;;;0.60;99.90;;;;;;5020920;28;20665;-83
2023/01/25 00:56:51;;;;;;;379.67;161.13;;;1.60;99.90;;;;;;5006329;28;20404;-84
2023/01/25 00:59:17;;;;;;;378.07;163.27;;;0.50;99.90;;;;;;5017910;28;20296;-84
2023/01/25 01:01:42;;;;;;;376.23;163.10;;;0.50;99.90;;;;;;4994122;28;20405;-83
2023/01/25 01:04:08;;;;;;;381.17;162.70;;;2.00;99.90;;;;;;5018138;28;20457;-83
2023/01/25 01:06:35;;;;;;;379.63;160.50;;;0.70;99.90;;;;;;5005028;28;20497;-83
2023/01/25 01:09:01;;;;;;;379.80;162.90;;;0.90;99.90;;;;;;5021260;28;20091;-84
2023/01/25 01:11:27;;;;;;;376.83;162.83;;;1.40;99.90;;;;;;5037405;28;20296;-83
2023/01/25 01:13:56;;;;;;;366.57;162.90;;;0.70;99.90;;;;;;5055000;28;20578;-83
2023/01/25 01:16:21;;;;;;;378.73;162.17;;;1.80;99.90;;;;;;5055451;28;20045;-85
2023/01/25 01:18:47;;;;;;;375.63;162.47;;;2.00;99.90;;;;;;5058336;28;20322;-85
2023/01/25 01:21:13;;;;;;;372.47;161.20;;;0.50;99.90;;;;;;5065250;28;20035;-84
2023/01/25 01:23:39;;;;;;;371.47;161.40;;;1.30;99.90;;;;;;5062358;28;20048;-84
2023/01/25 01:26:08;;;;;;;369.53;161.57;;;0.70;99.90;;;;;;5062123;28;20293;-84
2023/01/25 01:28:38;;;;;;;366.80;161.60;;;0.50;99.90;;;;;;5060337;28;20295;-84
2023/01/25 01:31:10;;;;;;;367.97;161.50;;;0.50;99.90;;;;;;5034956;28;20787;-84
2023/01/25 01:33:36;;;;;;;368.77;161.07;;;0.50;99.90;;;;;;5018245;28;20296;-84
2023/01/25 01:36:15;;;;;;;358.73;159.63;;;0.60;99.90;;;;;;5039721;28;20302;-84
2023/01/25 01:38:41;;;;;;;363.73;161.83;;;0.50;99.90;;;;;;5039752;28;20103;-83
2023/01/25 01:41:08;;;;;;;360.07;160.83;;;1.10;99.90;;;;;;5041070;28;20312;-83
2023/01/25 01:43:34;;;;;;;368.43;162.27;;;0.50;99.90;;;;;;5003558;28;20335;-83
2023/01/25 01:46:02;;;;;;;378.00;163.40;;;0.40;99.90;;;;;;5022149;28;20288;-83
2023/01/25 01:48:45;;;;;;;355.07;160.13;;;0.50;99.90;;;;;;5039875;28;20037;-84
2023/01/25 01:51:23;;;;;;;364.33;162.73;;;0.40;99.90;;;;;;5039846;28;20304;-83
2023/01/25 01:53:56;;;;;;;364.20;163.20;;;0.40;99.90;;;;;;5031259;28;20304;-84
2023/01/25 01:56:35;;;;;;;368.83;163.70;;;0.40;99.90;;;;;;5039747;28;20338;-83
2023/01/25 01:59:04;;;;;;;358.30;161.53;;;1.70;99.90;;;;;;5022379;28;20763;-84
2023/01/25 02:01:31;;;;;;;357.90;163.10;;;0.40;99.90;;;;;;5041143;28;20887;-85
2023/01/25 02:03:57;;;;;;;359.27;162.87;;;0.20;99.90;;;;;;5026078;28;20628;-83
2023/01/25 02:06:31;;;;;;;359.33;161.67;;;0.30;99.90;;;;;;5041292;28;20302;-84
2023/01/25 02:08:58;;;;;;;360.40;162.97;;;1.00;99.90;;;;;;5042710;28;20353;-84
2023/01/25 02:11:25;;;;;;;359.77;163.10;;;0.20;99.90;;;;;;5041334;28;20287;-84
2023/01/25 02:13:53;;;;;;;349.03;159.33;;;-0.10;99.90;;;;;;5006768;28;20296;-84
2023/01/25 02:16:23;;;;;;;355.60;161.40;;;0.20;99.90;;;;;;5032385;28;20689;-83
2023/01/25 02:18:50;;;;;;;354.37;161.80;;;0.80;99.90;;;;;;5015961;28;20823;-84
2023/01/25 02:21:15;;;;;;;353.97;161.97;;;1.10;99.90;;;;;;5039360;28;20785;-84
2023/01/25 02:23:57;;;;;;;361.57;162.73;;;0.20;99.90;;;;;;5013769;28;20265;-84
2023/01/25 02:26:23;;;;;;;356.97;162.13;;;0.30;99.90;;;;;;5039441;28;20077;-84
2023/01/25 02:28:57;;;;;;;350.63;158.53;;;0.30;99.90;;;;;;5018810;28;20295;-84
2023/01/25 02:31:24;;;;;;;356.57;163.67;;;0.30;99.90;;;;;;5059534;28;20333;-84
2023/01/25 02:33:50;;;;;;;357.57;163.27;;;0.70;99.90;;;;;;5051069;28;20319;-84
2023/01/25 02:36:21;;;;;;;354.13;161.33;;;0.20;99.90;;;;;;5058798;28;20299;-84
2023/01/25 02:38:53;;;;;;;358.17;161.50;;;0.30;99.90;;;;;;5049853;28;20303;-84
2023/01/25 02:41:39;;;;;;;348.97;160.77;;;1.40;99.90;;;;;;5061271;28;20344;-84
2023/01/25 02:44:11;;;;;;;341.30;158.10;;;0.30;99.90;;;;;;5050307;28;20726;-84
2023/01/25 02:46:38;;;;;;;350.20;160.77;;;0.30;99.90;;;;;;5060634;28;20440;-84
2023/01/25 02:49:06;;;;;;;346.17;159.50;;;0.20;99.90;;;;;;5062814;28;20377;-84
2023/01/25 02:51:35;;;;;;;344.60;158.27;;;0.80;99.90;;;;;;5059243;28;20283;-84
2023/01/25 02:54:02;;;;;;;349.33;159.13;;;0.50;99.90;;;;;;5064827;28;20291;-84
2023/01/25 02:56:27;;;;;;;354.10;161.17;;;0.30;99.90;;;;;;5080465;28;20261;-84
2023/01/25 02:58:53;;;;;;;349.23;159.40;;;0.20;99.90;;;;;;5065874;28;20406;-84
2023/01/25 03:01:19;;;;;;;346.87;159.23;;;1.10;99.90;;;;;;5063462;28;20146;-84
2023/01/25 03:03:44;;;;;;;334.43;158.40;;;0.90;99.90;;;;;;5063178;28;20052;-84
2023/01/25 03:06:10;;;;;;;342.77;160.10;;;0.40;99.90;;;;;;5062016;28;20123;-84
2023/01/25 03:08:36;;;;;;;338.80;157.13;;;0.40;99.90;;;;;;5060847;28;20048;-84
2023/01/25 03:11:03;;;;;;;339.10;157.97;;;1.00;99.90;;;;;;5062293;28;20500;-84
2023/01/25 03:13:29;;;;;;;331.77;158.23;;;0.10;99.90;;;;;;5062245;28;20041;-84
2023/01/25 03:16:05;;;;;;;347.03;162.37;;;0.10;99.90;;;;;;5062337;28;20387;-84
2023/01/25 03:18:30;;;;;;;341.00;158.23;;;0.10;99.90;;;;;;5061991;28;20303;-83
2023/01/25 03:21:02;;;;;;;344.63;160.90;;;0.10;99.90;;;;;;5055155;28;20040;-84
2023/01/25 03:23:28;;;;;;;336.97;157.17;;;0.10;99.90;;;;;;5057736;28;20052;-83
2023/01/25 03:25:53;;;;;;;336.90;156.93;;;0.10;99.90;;;;;;5062237;28;20628;-84
2023/01/25 03:28:19;;;;;;;341.43;157.63;;;0.00;99.90;;;;;;5061756;28;20041;-83
2023/01/25 03:30:48;;;;;;;340.97;158.67;;;0.40;99.90;;;;;;5036980;28;20107;-84
2023/01/25 03:33:14;;;;;;;348.00;161.20;;;0.00;99.90;;;;;;5047483;28;20057;-84
2023/01/25 03:35:40;;;;;;;345.63;160.93;;;0.00;99.90;;;;;;5042052;28;20299;-84
2023/01/25 03:38:05;;;;;;;329.33;154.97;;;1.20;99.90;;;;;;5042032;28;20132;-84
2023/01/25 03:40:31;;;;;;;339.80;157.53;;;1.30;99.90;;;;;;5033660;28;20116;-84
2023/01/25 03:42:56;;;;;;;341.57;158.37;;;1.40;99.90;;;;;;5042803;28;20038;-84
2023/01/25 03:45:22;;;;;;;349.67;161.87;;;0.00;99.90;;;;;;5045026;28;20064;-84
2023/01/25 03:47:48;;;;;;;347.73;161.63;;;-0.10;99.90;;;;;;5027197;28;20052;-83
2023/01/25 03:50:14;;;;;;;345.83;160.97;;;0.40;99.90;;;;;;5044545;28;20068;-83
2023/01/25 03:53:28;;;;;;;346.77;160.13;;;0.00;99.90;;;;;;5045044;28;20049;-84
2023/01/25 03:56:07;;;;;;;339.00;157.53;;;0.60;99.90;;;;;;4942089;28;20046;-84
2023/01/25 03:58:33;;;;;;;345.63;161.50;;;0.00;99.90;;;;;;4942611;28;20301;-84
2023/01/25 04:01:00;;;;;;;348.00;161.73;;;0.00;99.90;;;;;;4955633;28;20311;-84
2023/01/25 04:03:27;;;;;;;347.63;160.83;;;0.60;99.90;;;;;;4963896;28;20306;-84
2023/01/25 04:05:54;;;;;;;346.07;161.83;;;0.80;99.90;;;;;;4963918;28;20310;-84
2023/01/25 04:08:20;;;;;;;346.20;162.47;;;0.80;99.90;;;;;;4962560;28;20849;-84
2023/01/25 04:10:53;;;;;;;334.43;158.73;;;0.20;99.90;;;;;;4963883;28;20313;-84
2023/01/25 04:13:20;;;;;;;334.80;158.97;;;0.10;99.90;;;;;;4961495;28;20377;-84
2023/01/25 04:15:46;;;;;;;336.93;159.27;;;0.50;99.90;;;;;;4960835;28;20302;-84
2023/01/25 04:18:12;;;;;;;327.57;155.87;;;0.10;99.90;;;;;;4961226;28;20295;-84
2023/01/25 04:20:38;;;;;;;335.00;157.93;;;-0.10;99.90;;;;;;4944670;29;20055;-84
2023/01/25 04:23:05;;;;;;;344.83;161.77;;;1.30;99.90;;;;;;4960399;28;20586;-84
2023/01/25 04:25:31;;;;;;;331.53;157.37;;;0.30;99.90;;;;;;4963043;28;20594;-83
2023/01/25 04:27:57;;;;;;;331.27;157.77;;;-0.60;99.90;;;;;;4957527;28;20299;-83
2023/01/25 04:30:23;;;;;;;332.20;158.00;;;0.30;99.90;;;;;;4989689;28;20437;-83
2023/01/25 04:32:49;;;;;;;330.30;157.67;;;0.10;99.90;;;;;;5050337;28;20102;-84
2023/01/25 04:35:15;;;;;;;336.10;156.63;;;0.10;99.90;;;;;;5060459;28;20083;-83
2023/01/25 04:37:40;;;;;;;337.03;156.97;;;1.50;99.90;;;;;;5060514;28;20568;-83
2023/01/25 04:40:08;;;;;;;332.80;156.57;;;0.10;99.90;;;;;;5060217;28;20429;-84
2023/01/25 04:42:34;;;;;;;343.03;161.80;;;0.10;99.90;;;;;;5053529;28;20048;-84
2023/01/25 04:44:59;;;;;;;342.07;159.80;;;0.50;99.90;;;;;;5064073;28;20299;-84
2023/01/25 04:47:25;;;;;;;339.63;160.70;;;0.70;99.90;;;;;;5062987;28;20113;-83
2023/01/25 04:49:51;;;;;;;338.60;159.80;;;-0.10;99.90;;;;;;5051158;28;20041;-83
2023/01/25 04:52:16;;;;;;;340.63;159.67;;;-0.10;99.90;;;;;;5059045;28;20048;-84
2023/01/25 04:54:42;;;;;;;342.57;160.87;;;-0.10;99.90;;;;;;5059489;28;20539;-83
2023/01/25 04:57:08;;;;;;;338.83;158.80;;;0.00;99.90;;;;;;5059345;28;20131;-84
2023/01/25 04:59:33;;;;;;;339.17;160.63;;;-0.10;99.90;;;;;;5057965;28;20119;-84
2023/01/25 05:01:59;;;;;;;328.63;157.30;;;0.80;99.90;;;;;;5059684;28;20068;-84
2023/01/25 05:04:25;;;;;;;338.03;159.53;;;-0.20;99.90;;;;;;5062278;28;20102;-84
2023/01/25 05:06:50;;;;;;;339.77;160.27;;;-0.20;99.90;;;;;;5060697;28;20040;-84
2023/01/25 05:09:16;;;;;;;343.30;160.10;;;-0.20;99.90;;;;;;5059483;28;20045;-84
2023/01/25 05:11:42;;;;;;;345.67;160.93;;;-0.10;99.90;;;;;;5058798;28;20079;-84
2023/01/25 05:14:08;;;;;;;343.73;159.27;;;-0.20;99.90;;;;;;5060242;28;20039;-84
2023/01/25 05:16:33;;;;;;;338.60;159.50;;;-0.20;99.90;;;;;;5060340;28;20136;-84
2023/01/25 05:18:59;;;;;;;342.23;160.77;;;-0.30;99.90;;;;;;5062651;28;20390;-84
2023/01/25 05:24:09;;;;;;;335.50;157.77;;;0.80;99.90;;;;;;5052571;28;20098;-84
2023/01/25 05:29:19;;;;;;;335.57;158.53;;;-1.10;99.90;;;;;;5053007;28;20045;-84
2023/01/25 05:31:44;;;;;;;337.63;158.43;;;0.00;99.90;;;;;;5051828;28;20357;-84
2023/01/25 05:34:10;;;;;;;341.57;160.03;;;-1.40;99.90;;;;;;5060213;28;20045;-84
2023/01/25 05:36:36;;;;;;;338.07;159.47;;;0.20;99.90;;;;;;5057032;28;20045;-84
2023/01/25 05:39:05;;;;;;;335.33;159.60;;;-0.20;99.90;;;;;;5060865;28;20049;-85
2023/01/25 05:41:30;;;;;;;334.30;159.67;;;1.10;99.90;;;;;;5059731;28;20083;-84
2023/01/25 05:43:56;;;;;;;334.77;159.50;;;0.60;99.90;;;;;;5058253;28;20330;-84
2023/01/25 05:46:22;;;;;;;334.17;159.37;;;-0.30;99.90;;;;;;5060379;28;20051;-84
2023/01/25 05:48:47;;;;;;;332.30;159.17;;;-0.40;99.90;;;;;;5059782;28;20508;-85
2023/01/25 05:51:13;;;;;;;324.13;155.43;;;-0.30;99.90;;;;;;5061456;28;20512;-84
2023/01/25 05:53:39;;;;;;;331.73;158.57;;;-0.30;99.90;;;;;;5057971;28;20044;-84
2023/01/25 05:56:05;;;;;;;330.23;158.63;;;-0.30;99.90;;;;;;5059065;28;20402;-84
2023/01/25 05:58:31;;;;;;;331.30;158.17;;;-0.30;99.90;;;;;;5063805;28;20584;-84
2023/01/25 06:01:01;;;;;;;330.47;159.50;;;0.10;99.90;;;;;;5063252;28;20298;-84
2023/01/25 06:03:26;;;;;;;333.03;158.70;;;-0.40;99.90;;;;;;5050932;28;20098;-85
2023/01/25 06:05:56;;;;;;;329.57;159.17;;;-0.40;99.90;;;;;;5051183;28;20454;-84
2023/01/25 06:08:22;;;;;;;330.73;159.83;;;-0.30;99.90;;;;;;5061979;28;20045;-84
2023/01/25 06:10:48;;;;;;;330.80;159.87;;;-0.30;99.90;;;;;;5061694;28;20295;-85
2023/01/25 06:13:13;;;;;;;324.17;158.23;;;0.90;99.90;;;;;;5061429;28;20049;-84
2023/01/25 06:15:39;;;;;;;325.93;156.53;;;-0.20;99.90;;;;;;5053944;28;20040;-84
2023/01/25 06:18:04;;;;;;;333.00;160.10;;;0.90;99.90;;;;;;5059603;28;20029;-83
2023/01/25 06:20:30;;;;;;;326.27;157.93;;;-0.30;99.90;;;;;;5063131;28;20048;-84
2023/01/25 06:22:56;;;;;;;330.67;159.73;;;0.20;99.90;;;;;;5065556;28;20063;-84
2023/01/25 06:25:22;;;;;;;326.80;159.43;;;0.90;99.90;;;;;;5063798;28;20080;-84
2023/01/25 06:27:47;;;;;;;329.97;158.97;;;0.00;99.90;;;;;;5066468;28;20365;-84
2023/01/25 06:30:13;;;;;;;324.93;157.37;;;-0.30;99.90;;;;;;5064753;28;20053;-83
2023/01/25 06:32:39;;;;;;;328.10;158.27;;;-0.40;99.90;;;;;;5063405;28;20071;-84
2023/01/25 06:35:04;;;;;;;305.83;152.80;;;0.50;99.90;;;;;;5063215;28;20401;-84
2023/01/25 06:37:30;;;;;;;329.10;160.87;;;-0.40;99.90;;;;;;5063365;28;20053;-84
2023/01/25 06:39:56;;;;;;;327.50;159.30;;;-0.40;99.90;;;;;;5066175;28;20369;-84
2023/01/25 06:42:24;;;;;;;324.97;159.33;;;0.30;99.90;;;;;;5065017;28;20526;-84
2023/01/25 06:44:50;;;;;;;319.77;156.73;;;-0.40;99.90;;;;;;5061735;28;20047;-84
2023/01/25 06:47:16;;;;;;;318.77;156.27;;;0.70;99.90;;;;;;5054690;28;20295;-84
2023/01/25 06:49:42;;;;;;;315.40;154.40;;;1.70;99.90;;;;;;5064965;28;20049;-85
2023/01/25 06:52:07;;;;;;;315.10;154.33;;;-0.50;99.90;;;;;;5064945;28;20072;-85
2023/01/25 06:54:33;;;;;;;315.30;154.70;;;-1.00;99.90;;;;;;5064304;28;20051;-85
2023/01/25 06:56:59;;;;;;;313.83;154.67;;;-0.40;99.90;;;;;;5062574;28;20478;-85
2023/01/25 06:59:24;;;;;;;310.40;152.80;;;0.60;99.90;;;;;;5060221;28;20044;-85
2023/01/25 07:01:50;;;;;;;316.57;156.20;;;-0.60;99.90;;;;;;5062321;28;20477;-84
2023/01/25 07:04:16;;;;;;;314.50;156.23;;;-0.50;99.90;;;;;;5062699;28;20041;-84
2023/01/25 07:06:42;;;;;;;316.30;156.63;;;0.40;99.90;;;;;;5055401;28;20041;-85
2023/01/25 07:09:10;;;;;;;316.03;155.03;;;-0.30;99.90;;;;;;5059560;28;20703;-85
2023/01/25 07:11:36;;;;;;;305.53;150.60;;;0.80;99.90;;;;;;5062183;28;20498;-84
2023/01/25 07:14:02;;;;;;;321.37;158.33;;;0.60;99.90;;;;;;5064322;28;20302;-84
2023/01/25 07:16:28;;;;;;;294.70;148.47;;;-0.60;99.90;;;;;;5057320;28;20041;-85
2023/01/25 07:18:54;;;;;;;295.70;148.50;;;-0.60;99.90;;;;;;5061619;28;20302;-85
2023/01/25 07:21:22;;;;;;;316.60;155.20;;;0.90;99.90;;;;;;5060865;28;20133;-84
2023/01/25 07:23:48;;;;;;;321.43;158.47;;;-0.40;99.90;;;;;;5062061;28;20041;-85
2023/01/25 07:26:19;;;;;;;317.80;154.70;;;-1.10;99.90;;;;;;5060138;28;20306;-85
2023/01/25 07:28:46;;;;;;;324.20;156.97;;;-0.50;99.90;;;;;;5061729;28;20389;-85
2023/01/25 07:31:13;;;;;;;309.90;152.17;;;-0.60;99.90;;;;;;5039499;28;20805;-88
2023/01/25 07:33:39;;;;;;;338.00;159.93;;;-0.40;99.90;;;;;;5007072;28;20291;-84
2023/01/25 07:36:06;;;;;;;340.77;160.33;;;-0.70;99.90;;;;;;5024392;28;20486;-85
2023/01/25 07:38:33;;;;;;;341.83;159.90;;;-0.60;99.90;;;;;;5022852;28;20132;-83
2023/01/25 07:40:58;;;;;;;339.07;159.83;;;0.50;99.90;;;;;;5041849;28;20307;-86
2023/01/25 07:43:24;;;;;;;339.93;160.43;;;0.60;99.90;;;;;;5043596;28;20314;-85
2023/01/25 07:45:53;;;;;;;337.80;161.53;;;-0.70;99.90;;;;;;5043544;28;20407;-85
2023/01/25 07:48:19;;;;;;;334.70;160.20;;;0.30;99.90;;;;;;5020787;28;20374;-85
2023/01/25 07:50:48;;;;;;;334.27;161.43;;;-0.80;99.90;;;;;;5044577;28;20048;-85
2023/01/25 07:53:15;;;;;;;329.97;159.30;;;0.30;99.90;;;;;;5029470;28;20391;-83
2023/01/25 07:55:40;;;;;;;308.67;152.03;;;-0.60;99.90;;;;;;5046165;28;20067;-85
2023/01/25 07:58:09;;;;;;;333.50;160.17;;;-0.60;99.90;;;;;;5024142;28;20292;-84
2023/01/25 08:00:35;;;;;;;331.37;160.23;;;-0.60;99.90;;;;;;5023524;28;20550;-85
2023/01/25 08:03:00;;;;;;;330.57;160.93;;;-0.10;99.90;;;;;;5034351;28;20403;-85
2023/01/25 08:05:26;;;;;;;327.93;158.50;;;-0.60;99.90;;;;;;5044760;28;20045;-84
2023/01/25 08:07:52;;;;;;;326.17;159.13;;;-0.60;99.90;;;;;;5043928;28;20056;-84
2023/01/25 08:10:17;;;;;;;328.03;160.57;;;0.20;99.90;;;;;;5038805;28;20045;-85
2023/01/25 08:12:46;;;;;;;323.90;158.30;;;-0.50;99.90;;;;;;5019849;28;20402;-83
2023/01/25 08:15:13;;;;;;;326.57;158.90;;;-0.50;99.90;;;;;;5040919;28;20053;-84
2023/01/25 08:17:39;;;;;;;330.00;160.40;;;-0.50;99.90;;;;;;5041909;28;20803;-84
2023/01/25 08:20:06;;;;;;;329.60;159.90;;;-0.50;99.90;;;;;;5040604;28;20284;-86
2023/01/25 08:22:32;;;;;;;330.83;159.37;;;-0.50;99.90;;;;;;5040719;28;20390;-84
2023/01/25 08:24:59;;;;;;;330.60;159.63;;;-0.50;99.90;;;;;;5046938;28;20294;-84
2023/01/25 08:27:27;;;;;;;329.80;160.77;;;-0.60;99.90;;;;;;5033236;28;20405;-84
2023/01/25 08:29:53;;;;;;;323.60;158.10;;;-0.50;99.90;;;;;;5033609;28;20319;-84
2023/01/25 08:32:19;;;;;;;324.57;158.70;;;1.00;99.90;;;;;;5033680;28;20284;-83
2023/01/25 08:34:45;;;;;;;323.70;157.43;;;-0.60;99.90;;;;;;5033618;28;20287;-87
2023/01/25 08:37:11;;;;;;;329.57;159.70;;;0.30;99.90;;;;;;5016120;28;20136;-84
2023/01/25 08:39:37;;;;;;;324.27;158.63;;;-0.50;99.90;;;;;;5033291;28;20092;-84
2023/01/25 08:42:03;;;;;;;318.33;156.10;;;0.10;99.90;;;;;;5033844;28;20303;-84
2023/01/25 08:44:28;;;;;;;327.13;159.00;;;-0.60;99.90;;;;;;5032496;28;20111;-84
2023/01/25 08:46:54;;;;;;;328.13;158.93;;;-0.60;99.90;;;;;;5034151;28;20434;-85
2023/01/25 08:49:20;;;;;;;327.80;159.07;;;-0.80;99.90;;;;;;5015241;28;20442;-84
2023/01/25 08:51:47;;;;;;;328.80;158.50;;;-0.60;99.90;;;;;;5034273;28;20045;-84
2023/01/25 08:54:12;;;;;;;331.40;158.77;;;-0.60;99.90;;;;;;5015155;28;20088;-84
2023/01/25 08:56:39;;;;;;;332.03;159.40;;;-0.60;99.90;;;;;;5032698;28;20319;-83
2023/01/25 08:59:05;;;;;;;326.50;157.80;;;-0.60;99.90;;;;;;5032958;28;20056;-83
2023/01/25 09:01:31;;;;;;;326.63;158.00;;;-0.60;99.90;;;;;;5033148;28;20288;-84
2023/01/25 09:03:57;;;;;;;327.93;158.17;;;-0.60;99.90;;;;;;5033098;28;20292;-83
2023/01/25 09:06:22;;;;;;;326.37;158.03;;;-0.60;99.90;;;;;;5033072;28;20095;-84
2023/01/25 09:08:48;;;;;;;331.43;160.00;;;-0.60;99.90;;;;;;5033021;28;20043;-84
2023/01/25 09:11:20;;;;;;;325.33;157.73;;;-0.60;99.90;;;;;;5032624;28;20124;-83
2023/01/25 09:13:47;;;;;;;322.00;158.13;;;-0.60;99.90;;;;;;5033111;28;20049;-84
2023/01/25 09:16:21;;;;;;;323.30;158.50;;;-0.60;99.90;;;;;;5015173;28;20367;-84
2023/01/25 09:18:47;;;;;;;318.97;156.47;;;-0.60;99.90;;;;;;5032906;28;20490;-84
2023/01/25 09:21:17;;;;;;;318.83;157.27;;;-0.60;99.90;;;;;;5032830;28;20902;-83
2023/01/25 09:23:43;;;;;;;314.13;153.30;;;-0.50;99.90;;;;;;5032799;28;20174;-84
2023/01/25 09:26:10;;;;;;;318.37;156.50;;;-0.60;99.90;;;;;;5032568;28;20284;-84
2023/01/25 09:28:36;;;;;;;318.13;156.43;;;-0.50;99.90;;;;;;5032694;28;20307;-83
2023/01/25 09:31:04;;;;;;;322.17;158.00;;;-0.50;99.90;;;;;;5032454;28;20300;-83
2023/01/25 09:33:32;;;;;;;318.60;155.60;;;-0.50;99.90;;;;;;5015220;28;20296;-83
2023/01/25 09:35:58;;;;;;;324.90;159.57;;;-0.50;99.90;;;;;;5032559;28;20280;-83
2023/01/25 09:38:24;;;;;;;321.30;157.73;;;-0.50;99.90;;;;;;5032581;28;20679;-83
2023/01/25 09:41:05;;;;;;;321.00;158.63;;;-0.50;99.90;;;;;;5032251;28;20315;-84
2023/01/25 09:43:53;;;;;;;316.03;154.73;;;-0.50;99.90;;;;;;5032586;28;20652;-83
2023/01/25 09:46:30;;;;;;;318.37;156.70;;;-0.50;99.90;;;;;;5032611;28;20295;-83
2023/01/25 09:49:34;;;;;;;324.57;158.57;;;-0.60;99.90;;;;;;5032505;28;20293;-83
2023/01/25 09:52:11;;;;;;;326.03;158.30;;;-0.50;99.90;;;;;;5030329;28;20656;-83
2023/01/25 09:54:39;;;;;;;321.97;157.67;;;0.80;99.90;;;;;;5032404;28;20284;-83
2023/01/25 09:57:18;;;;;;;319.00;155.87;;;-0.50;99.90;;;;;;5036061;28;20393;-82
2023/01/25 09:59:46;;;;;;;318.23;156.03;;;-0.50;99.90;;;;;;5036344;28;20292;-83
2023/01/25 10:02:12;;;;;;;320.97;157.60;;;-0.50;99.90;;;;;;5036307;28;20270;-83
2023/01/25 10:04:43;;;;;;;324.43;161.83;;;-0.50;99.90;;;;;;5036686;28;20653;-83
2023/01/25 10:07:39;;;;;;;322.47;158.47;;;0.20;99.90;;;;;;5036521;28;20445;-84
2023/01/25 10:10:10;;;;;;;322.75;158.20;;;-0.50;99.90;;;;;;5018130;28;20349;-82
2023/01/25 10:12:37;;;;;;;319.67;157.73;;;-0.40;99.90;;;;;;5034927;28;20187;-83
2023/01/25 10:15:17;;;;;;;315.47;155.27;;;-0.50;99.90;;;;;;5018433;28;20287;-81
2023/01/25 10:17:43;;;;;;;320.57;157.90;;;-0.40;99.90;;;;;;5047885;28;20291;-84
2023/01/25 10:20:19;;;;;;;317.57;156.23;;;-0.40;99.90;;;;;;5044511;28;20306;-84
2023/01/25 10:23:07;;;;;;;321.23;158.67;;;0.00;99.90;;;;;;5027172;28;20056;-84
2023/01/25 10:25:42;;;;;;;320.03;157.03;;;-0.40;99.90;;;;;;5035835;28;20292;-83
2023/01/25 10:28:35;;;;;;;321.35;157.75;;;-0.40;99.90;;;;;;5013530;28;20306;-82
2023/01/25 10:31:05;;;;;;;316.87;156.03;;;-0.30;99.90;;;;;;4995987;28;20121;-81
2023/01/25 10:33:36;;;;;;;316.13;155.00;;;0.30;99.90;;;;;;4993681;28;20344;-84
2023/01/25 10:36:03;;;;;;;311.80;153.07;;;0.90;99.90;;;;;;4978513;28;20388;-83
2023/01/25 10:38:41;;;;;;;318.53;155.97;;;-0.30;99.90;;;;;;5003783;28;20304;-84
2023/01/25 10:41:20;;;;;;;317.80;156.00;;;1.10;99.90;;;;;;5000537;28;20309;-84
2023/01/25 10:43:46;;;;;;;320.80;158.43;;;-0.20;99.90;;;;;;5003648;28;20853;-84
2023/01/25 10:46:24;;;;;;;317.60;156.20;;;-0.20;99.90;;;;;;4992952;28;20840;-84
2023/01/25 10:48:49;;;;;;;320.80;158.30;;;-0.20;99.90;;;;;;5002758;28;20553;-84
2023/01/25 10:51:36;;;;;;;314.70;154.63;;;1.00;99.90;;;;;;4996093;28;20304;-84
2023/01/25 10:54:05;;;;;;;315.87;155.53;;;0.70;99.90;;;;;;5001755;28;20041;-84
2023/01/25 10:56:37;;;;;;;315.47;155.87;;;0.00;99.90;;;;;;4998102;28;20288;-84
2023/01/25 10:59:25;;;;;;;315.50;155.47;;;0.00;99.90;;;;;;4988550;28;20650;-84
2023/01/25 11:01:51;;;;;;;316.70;156.33;;;0.10;99.90;;;;;;5001332;28;20892;-84
2023/01/25 11:04:35;;;;;;;315.17;154.90;;;0.80;99.90;;;;;;4998160;28;20376;-84
2023/01/25 11:07:04;;;;;;;316.87;156.50;;;0.90;99.90;;;;;;4997255;28;20293;-84
2023/01/25 11:09:38;;;;;;;317.87;156.77;;;0.20;99.90;;;;;;5061905;28;20394;-83
2023/01/25 11:12:24;;;;;;;316.63;156.03;;;0.20;99.90;;;;;;5062556;28;20294;-84
2023/01/25 11:14:50;;;;;;;320.33;157.32;;;0.30;99.90;;;;;;5065387;28;20295;-83
2023/01/25 11:17:30;;;;;;;320.33;157.10;;;0.90;99.90;;;;;;5063334;28;20173;-83
2023/01/25 11:20:05;;;;;;;317.63;155.93;;;0.40;99.90;;;;;;5064071;28;20245;-83
2023/01/25 11:22:31;;;;;;;;;;;0.40;99.90;;;;;;5055265;28;20721;-88
2023/01/25 11:24:57;;;;;;;319.20;157.75;;;0.30;99.90;;;;;;5039351;28;20003;-84
2023/01/25 11:27:25;;;;;;;320.13;157.77;;;0.40;99.90;;;;;;5061321;28;20394;-85
2023/01/25 11:30:18;;;;;;;322.50;158.53;;;0.40;99.90;;;;;;5052810;28;20044;-84
2023/01/25 11:32:43;;;;;;;321.03;158.00;;;0.50;99.90;;;;;;5059397;28;20265;-85
2023/01/25 11:35:29;;;;;;;321.77;158.13;;;0.40;99.90;;;;;;5056064;28;20300;-84
2023/01/25 11:38:18;;;;;;;326.85;160.27;;;1.20;99.90;;;;;;5054732;28;20044;-85
2023/01/25 11:40:58;;;;;;;322.20;158.80;;;1.40;99.90;;;;;;5058316;28;20041;-84
2023/01/25 11:43:44;;;;;;;323.83;160.27;;;0.50;99.90;;;;;;5055047;28;20651;-85
2023/01/25 11:46:12;;;;;;;325.65;158.82;;;0.50;99.90;;;;;;5061924;28;20781;-84
2023/01/25 11:49:05;;;;;;;327.33;159.83;;;1.70;99.90;;;;;;5056321;28;20036;-84
2023/01/25 11:52:16;;;;;;;326.03;161.20;;;0.60;99.90;;;;;;5061420;28;20306;-84
2023/01/25 11:54:55;;;;;;;324.83;159.00;;;0.60;99.90;;;;;;5052380;28;20613;-86
2023/01/25 11:57:29;;;;;;;324.83;160.03;;;0.40;99.90;;;;;;5063503;28;20290;-84
2023/01/25 12:00:07;;;;;;;322.03;158.90;;;0.90;99.90;;;;;;5057825;28;20282;-84
2023/01/25 12:02:38;;;;;;;328.83;160.30;;;0.70;99.90;;;;;;5045356;28;20319;-85
2023/01/25 12:05:26;;;;;;;327.77;159.50;;;0.70;99.90;;;;;;5057345;28;20099;-85
2023/01/25 12:08:22;;;;;;;327.37;159.63;;;0.70;99.90;;;;;;5052372;28;20298;-85
2023/01/25 12:11:26;;;;;;;332.95;161.90;;;0.70;99.90;;;;;;5052335;28;20299;-85
2023/01/25 12:14:00;;;;;;;329.80;161.17;;;0.70;99.90;;;;;;5023255;28;20041;-85
2023/01/25 12:16:53;;;;;;;329.00;160.80;;;0.70;99.90;;;;;;5023802;28;20308;-86
2023/01/25 12:19:33;;;;;;;327.87;160.53;;;0.80;99.90;;;;;;5030319;28;20801;-84
2023/01/25 12:22:26;;;;;;;327.23;160.37;;;0.80;99.90;;;;;;5036057;28;20802;-85
2023/01/25 12:25:28;;;;;;;327.20;160.93;;;0.90;99.90;;;;;;5031538;28;20295;-84
2023/01/25 12:28:14;;;;;;;326.60;161.17;;;0.90;99.90;;;;;;5016285;28;20346;-85
2023/01/25 12:30:58;;;;;;;324.50;158.90;;;1.00;99.90;;;;;;5046525;28;20323;-84
2023/01/25 12:33:30;;;;;;;329.33;162.20;;;1.00;99.90;;;;;;5036896;28;20344;-83